createdAt,value
2022-12-27T00:37:27.475Z,99.90
2022-12-27T00:40:02.288Z,99.90
2022-12-27T00:50:51.373Z,99.90
2022-12-27T00:56:32.515Z,99.90
2022-12-27T00:59:03.173Z,99.90
2022-12-27T01:01:34.330Z,99.90
2022-12-27T01:04:02.506Z,99.90
2022-12-27T01:06:32.916Z,99.90
2022-12-27T01:09:19.120Z,99.90
2022-12-27T01:12:06.708Z,99.90
2022-12-27T01:14:34.503Z,99.90
2022-12-27T01:17:05.836Z,99.90
2022-12-27T01:19:40.164Z,99.90
2022-12-27T01:22:07.713Z,99.90
2022-12-27T01:24:35.586Z,99.90
2022-12-27T01:27:11.901Z,99.90
2022-12-27T01:30:05.761Z,99.90
2022-12-27T01:32:34.035Z,99.90
2022-12-27T01:38:03.244Z,99.90
2022-12-27T01:40:34.210Z,99.90
2022-12-27T01:45:48.364Z,99.90
2022-12-27T01:48:22.804Z,99.90
2022-12-27T02:07:12.796Z,99.90
2022-12-27T02:09:58.729Z,99.90
2022-12-27T02:12:31.769Z,99.90
2022-12-27T02:15:08.750Z,99.90
2022-12-27T02:17:50.529Z,99.90
2022-12-27T02:20:25.957Z,99.90
2022-12-27T02:23:43.065Z,99.90
2022-12-27T02:26:28.286Z,99.90
2022-12-27T02:29:24.204Z,99.90
2022-12-27T02:32:14.172Z,99.90
2022-12-27T02:49:58.043Z,99.90
2022-12-27T02:56:30.304Z,99.90
2022-12-27T02:59:12.978Z,99.90
2022-12-27T03:02:21.381Z,99.90
2022-12-27T03:05:00.828Z,99.90
2022-12-27T03:07:47.216Z,99.90
2022-12-27T03:14:00.287Z,99.90
2022-12-27T03:16:56.283Z,99.90
2022-12-27T03:20:04.870Z,99.90
2022-12-27T03:22:55.098Z,99.90
2022-12-27T03:25:30.289Z,99.90
2022-12-27T03:28:28.313Z,99.90
2022-12-27T03:31:28.851Z,99.90
2022-12-27T03:34:04.888Z,99.90
2022-12-27T03:36:52.759Z,99.90
2022-12-27T03:39:44.097Z,99.90
2022-12-27T03:42:38.444Z,99.90
2022-12-27T03:45:06.383Z,99.90
2022-12-27T03:47:56.517Z,99.90
2022-12-27T03:50:40.460Z,99.90
2022-12-27T03:53:21.309Z,99.90
2022-12-27T03:55:48.851Z,99.90
2022-12-27T03:58:15.848Z,99.90
2022-12-27T04:00:42.856Z,99.90
2022-12-27T04:03:09.773Z,99.90
2022-12-27T04:05:36.592Z,99.90
2022-12-27T04:08:21.931Z,99.90
2022-12-27T04:11:07.330Z,99.90
2022-12-27T04:13:52.537Z,99.90
2022-12-27T04:16:38.083Z,99.90
2022-12-27T04:19:23.433Z,99.90
2022-12-27T04:22:08.869Z,99.90
2022-12-27T04:24:54.334Z,99.90
2022-12-27T04:27:39.616Z,99.90
2022-12-27T04:30:25.443Z,99.90
2022-12-27T04:33:10.926Z,99.90
2022-12-27T04:35:37.770Z,99.90
2022-12-27T04:38:04.618Z,99.90
2022-12-27T04:40:53.061Z,99.90
2022-12-27T04:43:38.765Z,99.90
2022-12-27T04:46:24.637Z,99.90
2022-12-27T04:49:11.996Z,99.90
2022-12-27T04:51:57.589Z,99.90
2022-12-27T04:54:43.625Z,99.90
2022-12-27T04:57:10.361Z,99.90
2022-12-27T04:59:55.944Z,99.90
2022-12-27T05:02:23.153Z,99.90
2022-12-27T05:04:50.571Z,99.90
2022-12-27T05:07:55.644Z,99.90
2022-12-27T05:10:55.233Z,99.90
2022-12-27T05:13:41.076Z,99.90
2022-12-27T05:16:08.573Z,99.90
2022-12-27T05:21:27.610Z,99.90
2022-12-27T05:24:14.038Z,99.90
2022-12-27T05:29:32.044Z,99.90
2022-12-27T05:34:51.963Z,99.90
2022-12-27T05:37:19.338Z,99.90
2022-12-27T05:39:53.145Z,99.90
2022-12-27T05:42:20.220Z,99.90
2022-12-27T05:44:48.129Z,99.90
2022-12-27T05:47:15.294Z,99.90
2022-12-27T05:49:42.387Z,99.90
2022-12-27T05:52:09.240Z,99.90
2022-12-27T05:54:36.153Z,99.90
2022-12-27T05:57:03.316Z,99.90
2022-12-27T05:59:30.238Z,99.90
2022-12-27T06:01:59.451Z,99.90
2022-12-27T06:04:30.421Z,99.90
2022-12-27T06:07:09.447Z,99.90
2022-12-27T06:09:36.384Z,99.90
2022-12-27T06:12:04.867Z,99.90
2022-12-27T06:14:32.072Z,99.90
2022-12-27T06:16:59.244Z,99.90
2022-12-27T06:19:35.831Z,99.90
2022-12-27T06:22:03.688Z,99.90
2022-12-27T06:24:31.311Z,99.90
2022-12-27T06:27:01.591Z,99.90
2022-12-27T06:29:28.880Z,99.90
2022-12-27T06:31:57.878Z,99.90
2022-12-27T06:34:43.079Z,99.90
2022-12-27T06:37:10.220Z,99.90
2022-12-27T06:39:37.208Z,99.90
2022-12-27T06:42:04.526Z,99.90
2022-12-27T06:44:31.438Z,99.90
2022-12-27T06:46:58.517Z,99.90
2022-12-27T06:49:26.052Z,99.90
2022-12-27T06:51:59.330Z,99.90
2022-12-27T06:55:16.587Z,99.90
2022-12-27T06:57:45.931Z,99.90
2022-12-27T07:00:16.244Z,99.90
2022-12-27T07:02:45.568Z,99.90
2022-12-27T07:05:12.518Z,99.90
2022-12-27T07:07:41.710Z,99.90
2022-12-27T07:10:08.886Z,99.90
2022-12-27T07:12:36.990Z,99.90
2022-12-27T07:15:07.766Z,99.90
2022-12-27T07:17:36.013Z,99.90
2022-12-27T07:20:04.364Z,99.90
2022-12-27T07:22:31.336Z,99.90
2022-12-27T07:24:58.127Z,99.90
2022-12-27T07:27:25.049Z,99.90
2022-12-27T07:29:52.039Z,99.90
2022-12-27T07:32:20.215Z,99.90
2022-12-27T07:34:46.976Z,99.90
2022-12-27T07:37:13.713Z,99.90
2022-12-27T07:39:40.487Z,99.90
2022-12-27T07:42:08.706Z,99.90
2022-12-27T07:44:35.637Z,99.90
2022-12-27T07:47:02.445Z,99.90
2022-12-27T07:49:29.229Z,99.90
2022-12-27T07:51:56.024Z,99.90
2022-12-27T07:54:22.968Z,99.90
2022-12-27T07:56:49.673Z,99.90
2022-12-27T07:59:16.444Z,99.90
2022-12-27T08:02:03.539Z,99.90
2022-12-27T08:04:31.474Z,99.90
2022-12-27T08:07:13.862Z,99.90
2022-12-27T08:09:42.219Z,99.90
2022-12-27T08:12:09.359Z,99.90
2022-12-27T08:14:36.405Z,99.90
2022-12-27T08:17:14.601Z,99.90
2022-12-27T08:19:41.398Z,99.90
2022-12-27T08:22:08.173Z,99.90
2022-12-27T08:24:34.884Z,99.90
2022-12-27T08:27:01.665Z,99.90
2022-12-27T08:29:28.395Z,99.90
2022-12-27T08:31:55.181Z,99.90
2022-12-27T08:34:21.904Z,99.90
2022-12-27T08:36:55.602Z,99.90
2022-12-27T08:39:24.359Z,99.90
2022-12-27T08:41:53.272Z,99.90
2022-12-27T08:44:20.201Z,99.90
2022-12-27T08:46:47.242Z,99.90
2022-12-27T08:49:14.012Z,99.90
2022-12-27T08:51:41.705Z,99.90
2022-12-27T08:54:09.179Z,99.90
2022-12-27T08:56:36.303Z,99.90
2022-12-27T08:59:03.246Z,99.90
2022-12-27T09:01:30.100Z,99.90
2022-12-27T09:03:57.093Z,99.90
2022-12-27T09:06:25.990Z,99.90
2022-12-27T09:08:54.689Z,99.90
2022-12-27T09:11:33.153Z,99.90
2022-12-27T09:14:02.704Z,99.90
2022-12-27T09:16:30.565Z,99.90
2022-12-27T09:18:58.993Z,99.90
2022-12-27T09:21:29.540Z,99.90
2022-12-27T09:23:56.643Z,99.90
2022-12-27T09:26:26.413Z,99.90
2022-12-27T09:28:54.096Z,99.90
2022-12-27T09:31:22.748Z,99.90
2022-12-27T09:33:49.899Z,99.90
2022-12-27T09:36:22.465Z,99.90
2022-12-27T09:38:51.695Z,99.90
2022-12-27T09:44:52.819Z,99.90
2022-12-27T09:47:56.705Z,99.90
2022-12-27T09:50:54.876Z,99.90
2022-12-27T09:54:09.629Z,99.90
2022-12-27T09:57:02.094Z,99.90
2022-12-27T09:59:36.018Z,99.90
2022-12-27T10:02:04.343Z,99.90
2022-12-27T10:05:09.787Z,99.90
2022-12-27T10:07:38.234Z,99.90
2022-12-27T10:10:14.091Z,99.90
2022-12-27T10:13:08.240Z,99.90
2022-12-27T10:16:02.267Z,99.90
2022-12-27T10:18:46.589Z,99.90
2022-12-27T10:21:20.731Z,99.90
2022-12-27T10:24:17.150Z,99.90
2022-12-27T10:26:44.193Z,99.90
2022-12-27T10:29:20.437Z,99.90
2022-12-27T10:31:47.219Z,99.90
2022-12-27T10:34:16.642Z,99.90
2022-12-27T10:36:45.256Z,99.90
2022-12-27T10:39:30.726Z,99.90
2022-12-27T10:42:25.926Z,99.90
2022-12-27T10:44:55.246Z,99.90
2022-12-27T10:47:25.953Z,99.90
2022-12-27T10:50:14.498Z,99.90
2022-12-27T10:52:41.271Z,99.90
2022-12-27T10:55:30.520Z,99.90
2022-12-27T10:57:57.247Z,99.90
2022-12-27T11:00:24.768Z,99.90
2022-12-27T11:02:55.993Z,99.90
2022-12-27T11:05:25.848Z,99.90
2022-12-27T11:07:52.741Z,99.90
2022-12-27T11:10:22.955Z,99.90
2022-12-27T11:12:59.570Z,99.90
2022-12-27T11:15:28.195Z,99.90
2022-12-27T11:18:00.705Z,99.90
2022-12-27T11:20:52.473Z,99.90
2022-12-27T11:23:21.624Z,99.90
2022-12-27T11:25:56.147Z,99.90
2022-12-27T11:28:42.251Z,99.90
2022-12-27T11:31:13.914Z,99.90
2022-12-27T11:33:46.862Z,99.90
2022-12-27T11:36:16.047Z,99.90
2022-12-27T11:38:44.869Z,99.90
2022-12-27T11:41:31.204Z,99.90
2022-12-27T11:44:01.291Z,99.90
2022-12-27T11:47:07.109Z,99.90
2022-12-27T11:49:48.246Z,99.90
2022-12-27T11:52:36.977Z,99.90
2022-12-27T11:55:50.817Z,99.90
2022-12-27T11:58:32.400Z,99.90
2022-12-27T12:01:11.015Z,99.90
2022-12-27T12:03:49.650Z,99.90
2022-12-27T12:07:03.397Z,99.90
2022-12-27T12:09:52.071Z,99.90
2022-12-27T12:12:58.552Z,99.90
2022-12-27T12:15:46.468Z,99.90
2022-12-27T12:18:35.077Z,99.90
2022-12-27T12:21:25.656Z,99.90
2022-12-27T12:24:21.155Z,99.90
2022-12-27T12:27:09.998Z,99.90
2022-12-27T12:29:55.225Z,99.90
2022-12-27T12:32:43.910Z,99.90
2022-12-27T12:35:16.690Z,99.90
2022-12-27T12:38:30.363Z,99.90
2022-12-27T12:41:05.315Z,99.90
2022-12-27T12:44:00.415Z,99.90
2022-12-27T12:46:54.628Z,99.90
2022-12-27T12:49:48.555Z,99.90
2022-12-27T12:52:40.266Z,99.90
2022-12-27T12:55:40.946Z,99.90
2022-12-27T12:58:38.877Z,99.90
2022-12-27T13:01:24.460Z,99.90
2022-12-27T13:04:26.545Z,99.90
2022-12-27T13:07:22.254Z,99.90
2022-12-27T13:10:03.362Z,99.90
2022-12-27T13:13:02.032Z,99.90
2022-12-27T13:16:02.362Z,99.90
2022-12-27T13:18:51.048Z,99.90
2022-12-27T13:21:52.445Z,99.90
2022-12-27T13:24:44.393Z,99.90
2022-12-27T13:27:40.934Z,99.90
2022-12-27T13:30:16.474Z,99.90
2022-12-27T13:32:55.350Z,99.90
2022-12-27T13:35:52.717Z,99.90
2022-12-27T13:38:46.071Z,99.90
2022-12-27T13:41:31.654Z,99.90
2022-12-27T13:44:16.665Z,99.90
2022-12-27T13:47:08.124Z,99.60
2022-12-27T13:49:51.626Z,97.50
2022-12-27T13:52:57.578Z,97.50
2022-12-27T13:55:47.487Z,98.30
2022-12-27T13:58:45.843Z,98.60
2022-12-27T14:01:30.935Z,99.00
2022-12-27T14:04:06.925Z,99.00
2022-12-27T14:07:02.701Z,99.90
2022-12-27T14:09:29.374Z,99.30
2022-12-27T14:12:15.600Z,99.20
2022-12-27T14:14:44.184Z,99.70
2022-12-27T14:18:04.012Z,99.50
2022-12-27T14:21:02.895Z,99.10
2022-12-27T14:23:57.256Z,99.20
2022-12-27T14:26:48.796Z,99.30
2022-12-27T14:29:41.069Z,99.20
2022-12-27T14:32:07.782Z,99.30
2022-12-27T14:34:46.623Z,99.30
2022-12-27T14:37:53.369Z,99.50
2022-12-27T14:40:54.675Z,99.70
2022-12-27T14:43:21.431Z,99.90
2022-12-27T14:46:06.925Z,99.90
2022-12-27T14:48:34.862Z,99.90
2022-12-27T14:51:59.373Z,99.90
2022-12-27T14:54:31.406Z,99.90
2022-12-27T14:57:35.957Z,99.90
2022-12-27T15:00:14.550Z,99.90
2022-12-27T15:03:06.050Z,99.90
2022-12-27T15:05:41.790Z,99.90
2022-12-27T15:08:23.717Z,99.90
2022-12-27T15:11:21.923Z,99.90
2022-12-27T15:14:03.652Z,99.90
2022-12-27T15:16:56.183Z,99.90
2022-12-27T15:19:25.917Z,99.90
2022-12-27T15:22:14.286Z,99.90
2022-12-27T15:24:59.332Z,99.90
2022-12-27T15:27:47.305Z,99.90
2022-12-27T15:30:25.962Z,99.90
2022-12-27T15:33:23.350Z,99.90
2022-12-27T15:36:06.124Z,99.90
2022-12-27T15:38:47.169Z,99.90
2022-12-27T15:41:24.135Z,99.90
2022-12-27T15:44:18.653Z,99.90
2022-12-27T15:46:55.119Z,99.90
2022-12-27T15:49:24.739Z,99.90
2022-12-27T15:52:17.866Z,99.90
2022-12-27T15:55:05.833Z,99.90
2022-12-27T15:57:53.496Z,99.90
2022-12-27T16:00:33.550Z,99.90
2022-12-27T16:03:03.995Z,99.90
2022-12-27T16:05:44.470Z,99.90
2022-12-27T16:08:11.170Z,99.90
2022-12-27T16:10:40.919Z,99.90
2022-12-27T16:13:10.612Z,99.90
2022-12-27T16:15:44.764Z,99.90
2022-12-27T16:18:17.874Z,99.90
2022-12-27T16:21:11.943Z,99.90
2022-12-27T16:23:57.954Z,99.90
2022-12-27T16:27:01.469Z,99.90
2022-12-27T16:29:33.607Z,99.90
2022-12-27T16:32:20.812Z,99.90
2022-12-27T16:34:51.614Z,99.90
2022-12-27T16:37:44.893Z,99.90
2022-12-27T16:40:39.107Z,99.90
2022-12-27T16:43:05.702Z,99.90
2022-12-27T16:45:58.817Z,99.90
2022-12-27T16:48:35.057Z,99.90
2022-12-27T16:51:10.827Z,99.90
2022-12-27T16:53:49.484Z,99.90
2022-12-27T16:56:21.115Z,99.90
2022-12-27T16:58:48.464Z,99.90
2022-12-27T17:01:34.298Z,99.90
2022-12-27T17:04:01.236Z,99.90
2022-12-27T17:06:33.067Z,99.90
2022-12-27T17:09:11.928Z,99.90
2022-12-27T17:11:52.480Z,99.90
2022-12-27T17:14:25.541Z,99.90
2022-12-27T17:16:59.180Z,99.90
2022-12-27T17:19:33.937Z,99.90
2022-12-27T17:22:09.742Z,99.90
2022-12-27T17:24:36.836Z,99.90
2022-12-27T17:27:19.904Z,99.90
2022-12-27T17:29:57.107Z,99.90
2022-12-27T17:32:32.896Z,99.90
2022-12-27T17:35:02.633Z,99.90
2022-12-27T17:38:11.712Z,99.90
2022-12-27T17:41:13.668Z,99.90
2022-12-27T17:44:16.106Z,99.90
2022-12-27T17:47:26.744Z,99.90
2022-12-27T17:49:57.941Z,99.90
2022-12-27T17:52:44.219Z,99.90
2022-12-27T17:55:39.305Z,99.90
2022-12-27T17:58:09.269Z,99.90
2022-12-27T18:00:52.296Z,99.90
2022-12-27T18:03:19.346Z,99.90
2022-12-27T18:05:47.229Z,99.90
2022-12-27T18:08:28.714Z,99.90
2022-12-27T18:10:57.500Z,99.90
2022-12-27T18:13:26.987Z,99.90
2022-12-27T18:15:59.785Z,99.90
2022-12-27T18:18:34.844Z,99.90
2022-12-27T18:21:21.266Z,99.90
2022-12-27T18:23:49.151Z,99.90
2022-12-27T18:26:16.147Z,99.90
2022-12-27T18:28:43.587Z,99.90
2022-12-27T18:31:31.996Z,99.90
2022-12-27T18:34:01.657Z,99.90
2022-12-27T18:36:31.594Z,99.90
2022-12-27T18:39:34.804Z,99.90
2022-12-27T18:42:16.786Z,99.90
2022-12-27T18:44:50.486Z,99.90
2022-12-27T18:47:23.413Z,99.90
2022-12-27T18:49:59.395Z,99.90
2022-12-27T18:52:32.816Z,99.90
2022-12-27T18:55:18.731Z,99.90
2022-12-27T18:57:45.816Z,99.90
2022-12-27T19:00:26.528Z,99.90
2022-12-27T19:03:11.402Z,99.90
2022-12-27T19:05:38.572Z,99.90
2022-12-27T19:08:12.462Z,99.90
2022-12-27T19:10:48.196Z,99.90
2022-12-27T19:13:37.663Z,99.90
2022-12-27T19:16:05.942Z,99.90
2022-12-27T19:18:41.354Z,99.90
2022-12-27T19:21:16.491Z,99.90
2022-12-27T19:23:49.511Z,99.90
2022-12-27T19:26:18.859Z,99.90
2022-12-27T19:28:59.964Z,99.90
2022-12-27T19:31:27.155Z,99.90
2022-12-27T19:33:58.710Z,99.90
2022-12-27T19:36:29.409Z,99.90
2022-12-27T19:38:57.328Z,99.90
2022-12-27T19:41:24.799Z,99.90
2022-12-27T19:43:51.687Z,99.90
2022-12-27T19:46:19.238Z,99.90
2022-12-27T19:49:15.929Z,99.90
2022-12-27T19:51:37.304Z,99.90
2022-12-27T19:54:07.934Z,99.90
2022-12-27T19:56:34.833Z,99.90
2022-12-27T19:59:05.091Z,99.90
2022-12-27T20:01:31.877Z,99.90
2022-12-27T20:04:01.047Z,99.90
2022-12-27T20:06:28.758Z,99.90
2022-12-27T20:08:59.243Z,99.90
2022-12-27T20:11:27.917Z,99.90
2022-12-27T20:13:54.872Z,99.90
2022-12-27T20:16:21.662Z,99.90
2022-12-27T20:18:48.779Z,99.90
2022-12-27T20:21:22.006Z,99.90
2022-12-27T20:23:49.861Z,99.90
2022-12-27T20:26:19.908Z,99.90
2022-12-27T20:28:47.082Z,99.90
2022-12-27T20:31:19.522Z,99.90
2022-12-27T20:33:57.137Z,99.90
2022-12-27T20:36:25.899Z,99.90
2022-12-27T20:38:52.708Z,99.90
2022-12-27T20:41:21.150Z,99.90
2022-12-27T20:43:48.025Z,99.90
2022-12-27T20:46:17.581Z,99.90
2022-12-27T20:48:46.083Z,99.90
2022-12-27T20:51:20.970Z,99.90
2022-12-27T20:53:49.294Z,99.90
2022-12-27T20:56:16.964Z,99.90
2022-12-27T20:58:43.917Z,99.90
2022-12-27T21:01:15.595Z,99.90
2022-12-27T21:03:43.106Z,99.90
2022-12-27T21:06:21.893Z,99.90
2022-12-27T21:11:57.538Z,99.90
2022-12-27T21:14:24.386Z,99.90
2022-12-27T21:16:51.369Z,99.90
2022-12-27T21:19:19.024Z,99.90
2022-12-27T21:21:45.854Z,99.90
2022-12-27T21:24:12.768Z,99.90
2022-12-27T21:26:41.455Z,99.90
2022-12-27T21:29:09.485Z,99.90
2022-12-27T21:31:39.263Z,99.90
2022-12-27T21:34:07.108Z,99.90
2022-12-27T21:36:34.547Z,99.90
2022-12-27T21:39:04.539Z,99.90
2022-12-27T21:41:34.787Z,99.90
2022-12-27T21:44:02.345Z,99.90
2022-12-27T21:46:34.542Z,99.90
2022-12-27T21:49:04.206Z,99.90
2022-12-27T21:51:33.065Z,99.90
2022-12-27T21:54:03.283Z,99.90
2022-12-27T21:56:30.551Z,99.90
2022-12-27T21:58:59.140Z,99.90
2022-12-27T22:01:51.513Z,99.90
2022-12-27T22:04:18.348Z,99.90
2022-12-27T22:06:47.567Z,99.90
2022-12-27T22:09:15.671Z,99.90
2022-12-27T22:11:42.630Z,99.90
2022-12-27T22:14:09.429Z,99.90
2022-12-27T22:16:38.409Z,99.90
2022-12-27T22:19:07.592Z,99.90
2022-12-27T22:21:35.557Z,99.90
2022-12-27T22:24:03.504Z,99.90
2022-12-27T22:26:37.193Z,99.90
2022-12-27T22:29:05.486Z,99.90
2022-12-27T22:31:35.367Z,99.90
2022-12-27T22:34:03.847Z,99.90
2022-12-27T22:36:31.253Z,99.90
2022-12-27T22:39:01.474Z,99.90
2022-12-27T22:41:33.531Z,99.90
2022-12-27T22:44:05.689Z,99.90
2022-12-27T22:46:58.710Z,99.90
2022-12-27T22:49:19.475Z,99.90
2022-12-27T22:51:46.195Z,99.90
2022-12-27T22:54:12.928Z,99.90
2022-12-27T22:56:42.036Z,99.90
2022-12-27T22:59:10.476Z,99.90
2022-12-27T23:01:41.376Z,99.90
2022-12-27T23:04:11.092Z,99.90
2022-12-27T23:06:39.119Z,99.90
2022-12-27T23:09:07.008Z,99.90
2022-12-27T23:11:37.112Z,99.90
2022-12-27T23:14:13.955Z,99.90
2022-12-27T23:16:47.760Z,99.90
2022-12-27T23:19:16.907Z,99.90
2022-12-27T23:21:44.064Z,99.90
2022-12-27T23:24:13.595Z,99.90
2022-12-27T23:26:42.585Z,99.90
2022-12-27T23:29:12.825Z,99.90
2022-12-27T23:31:54.548Z,99.90
2022-12-27T23:34:28.142Z,99.90
2022-12-27T23:36:56.233Z,99.90
2022-12-27T23:39:22.905Z,99.90
2022-12-27T23:41:52.098Z,99.90
2022-12-27T23:44:32.743Z,99.90
2022-12-27T23:47:00.479Z,99.90
2022-12-27T23:49:27.239Z,99.90
2022-12-27T23:51:54.306Z,99.90
2022-12-27T23:54:21.000Z,99.90
2022-12-27T23:56:49.929Z,99.90
2022-12-27T23:59:16.859Z,99.90
